createdAt,value
2017-02-24T00:00:11.954Z,987.01
2017-02-24T00:00:33.765Z,987.00
2017-02-24T00:00:55.474Z,987.08
2017-02-24T00:01:21.960Z,987.21
2017-02-24T00:01:43.762Z,987.30
2017-02-24T00:02:10.237Z,986.92
2017-02-24T00:02:31.941Z,987.06
2017-02-24T00:02:53.738Z,986.96
2017-02-24T00:03:15.441Z,987.17
2017-02-24T00:03:37.151Z,987.21
2017-02-24T00:03:58.850Z,987.14
2017-02-24T00:04:20.613Z,986.88
2017-02-24T00:04:42.316Z,987.06
2017-02-24T00:05:04.021Z,987.41
2017-02-24T00:05:25.742Z,987.24
2017-02-24T00:05:47.557Z,987.15
2017-02-24T00:06:09.279Z,987.15
2017-02-24T00:06:35.751Z,986.96
2017-02-24T00:06:57.550Z,987.33
2017-02-24T00:07:50.542Z,987.32
2017-02-24T00:08:43.563Z,987.25
2017-02-24T00:09:05.278Z,987.30
2017-02-24T00:09:26.990Z,987.24
2017-02-24T00:09:48.816Z,987.15
2017-02-24T00:10:10.606Z,987.09
2017-02-24T00:10:32.303Z,987.32
2017-02-24T00:10:54.002Z,987.34
2017-02-24T00:11:15.798Z,987.43
2017-02-24T00:11:37.501Z,987.25
2017-02-24T00:11:59.219Z,987.57
2017-02-24T00:12:52.248Z,987.55
2017-02-24T00:13:13.963Z,987.51
2017-02-24T00:13:35.668Z,987.30
2017-02-24T00:13:57.464Z,987.45
2017-02-24T00:14:19.166Z,987.50
2017-02-24T00:14:45.672Z,987.26
2017-02-24T00:15:07.359Z,987.34
2017-02-24T00:15:29.157Z,987.63
2017-02-24T00:15:50.877Z,987.41
2017-02-24T00:16:12.583Z,987.49
2017-02-24T00:16:34.296Z,987.44
2017-02-24T00:17:00.777Z,987.64
2017-02-24T00:17:22.603Z,987.45
2017-02-24T00:17:49.083Z,987.51
2017-02-24T00:18:10.877Z,987.74
2017-02-24T00:18:37.354Z,987.46
2017-02-24T00:18:59.067Z,987.31
2017-02-24T00:19:20.775Z,987.43
2017-02-24T00:19:42.587Z,987.26
2017-02-24T00:20:04.333Z,987.80
2017-02-24T00:20:30.783Z,987.35
2017-02-24T00:20:52.483Z,987.65
2017-02-24T00:21:45.546Z,987.46
2017-02-24T00:22:07.255Z,987.50
2017-02-24T00:22:33.733Z,987.70
2017-02-24T00:22:55.521Z,987.43
2017-02-24T00:23:21.996Z,987.42
2017-02-24T00:23:43.691Z,987.49
2017-02-24T00:24:10.178Z,987.57
2017-02-24T00:24:31.957Z,987.65
2017-02-24T00:24:53.662Z,987.52
2017-02-24T00:25:56.169Z,987.55
2017-02-24T00:26:22.651Z,987.57
2017-02-24T00:26:44.459Z,987.62
2017-02-24T00:27:06.257Z,987.44
2017-02-24T00:27:27.965Z,987.59
2017-02-24T00:27:49.752Z,987.62
2017-02-24T00:28:11.453Z,987.55
2017-02-24T00:28:33.160Z,987.73
2017-02-24T00:28:54.868Z,987.62
2017-02-24T00:29:16.702Z,987.60
2017-02-24T00:30:19.209Z,987.59
2017-02-24T00:30:41.102Z,987.71
2017-02-24T00:31:02.836Z,987.71
2017-02-24T00:31:55.890Z,987.71
2017-02-24T00:32:17.606Z,987.81
2017-02-24T00:32:44.129Z,987.74
2017-02-24T00:33:05.832Z,988.00
2017-02-24T00:33:58.782Z,988.12
2017-02-24T00:34:51.729Z,987.75
2017-02-24T00:35:44.790Z,987.83
2017-02-24T00:36:06.619Z,987.83
2017-02-24T00:36:28.429Z,987.97
2017-02-24T00:36:50.141Z,987.79
2017-02-24T00:37:43.198Z,988.01
2017-02-24T00:38:09.693Z,987.91
2017-02-24T00:38:31.508Z,988.09
2017-02-24T00:39:25.445Z,988.05
2017-02-24T00:40:28.545Z,988.47
2017-02-24T00:40:50.353Z,987.94
2017-02-24T00:41:43.417Z,988.38
2017-02-24T00:42:09.992Z,988.02
2017-02-24T00:42:31.800Z,988.30
2017-02-24T00:43:24.880Z,988.38
2017-02-24T00:43:46.586Z,988.19
2017-02-24T00:44:13.061Z,988.27
2017-02-24T00:44:34.857Z,988.44
2017-02-24T00:45:37.369Z,988.57
2017-02-24T00:45:59.067Z,988.15
2017-02-24T00:46:20.898Z,988.45
2017-02-24T00:46:42.622Z,988.46
2017-02-24T00:47:49.880Z,988.74
2017-02-24T00:48:11.692Z,988.58
2017-02-24T00:48:33.395Z,988.48
2017-02-24T00:48:55.106Z,988.60
2017-02-24T00:49:16.802Z,988.47
2017-02-24T00:49:38.600Z,988.66
2017-02-24T00:51:12.443Z,989.58
2017-02-24T00:52:15.830Z,989.39
2017-02-24T00:52:37.747Z,989.09
2017-02-24T00:53:35.955Z,989.00
2017-02-24T00:53:57.864Z,989.21
2017-02-24T00:55:05.100Z,988.97
2017-02-24T00:55:27.045Z,989.08
2017-02-24T00:55:48.875Z,989.43
2017-02-24T00:56:15.304Z,989.02
2017-02-24T00:56:37.111Z,989.09
2017-02-24T00:57:03.594Z,988.94
2017-02-24T00:57:25.304Z,989.08
2017-02-24T00:57:47.014Z,989.40
2017-02-24T00:58:08.715Z,989.32
2017-02-24T00:58:30.505Z,989.05
2017-02-24T00:58:52.291Z,989.05
2017-02-24T00:59:18.802Z,989.40
2017-02-24T00:59:40.726Z,989.27
2017-02-24T01:00:33.780Z,989.11
2017-02-24T01:01:26.741Z,988.92
2017-02-24T01:01:48.550Z,989.25
2017-02-24T01:02:15.042Z,989.44
2017-02-24T01:02:36.738Z,989.35
2017-02-24T01:02:58.447Z,989.35
2017-02-24T01:03:25.034Z,989.44
2017-02-24T01:03:46.734Z,989.35
2017-02-24T01:04:08.618Z,989.11
2017-02-24T01:04:35.090Z,989.22
2017-02-24T01:04:56.817Z,989.17
2017-02-24T01:05:18.526Z,989.23
2017-02-24T01:05:40.334Z,989.15
2017-02-24T01:06:02.059Z,989.14
2017-02-24T01:06:23.765Z,989.25
2017-02-24T01:06:45.487Z,989.15
2017-02-24T01:07:07.275Z,989.29
2017-02-24T01:07:33.744Z,989.34
2017-02-24T01:07:55.441Z,989.35
2017-02-24T01:08:17.159Z,989.47
2017-02-24T01:08:39.023Z,989.36
2017-02-24T01:09:00.742Z,989.41
2017-02-24T01:09:22.457Z,989.47
2017-02-24T01:09:44.168Z,989.71
2017-02-24T01:10:05.873Z,989.62
2017-02-24T01:10:27.665Z,989.52
2017-02-24T01:10:54.241Z,989.59
2017-02-24T01:11:16.027Z,989.55
2017-02-24T01:11:42.612Z,989.36
2017-02-24T01:12:04.415Z,989.57
2017-02-24T01:12:57.381Z,989.39
2017-02-24T01:13:50.472Z,989.50
2017-02-24T01:14:12.176Z,989.59
2017-02-24T01:14:38.745Z,989.61
2017-02-24T01:15:00.632Z,989.55
2017-02-24T01:15:22.341Z,989.70
2017-02-24T01:16:15.295Z,989.51
2017-02-24T01:17:08.281Z,989.63
2017-02-24T01:18:15.556Z,989.57
2017-02-24T01:18:37.355Z,989.58
2017-02-24T01:19:03.948Z,989.47
2017-02-24T01:19:25.745Z,989.42
2017-02-24T01:20:28.334Z,989.75
2017-02-24T01:20:54.814Z,989.59
2017-02-24T01:21:16.529Z,989.80
2017-02-24T01:22:09.578Z,989.65
2017-02-24T01:22:36.163Z,989.59
2017-02-24T01:22:57.949Z,989.57
2017-02-24T01:23:19.755Z,989.69
2017-02-24T01:23:46.232Z,989.78
2017-02-24T01:24:08.035Z,989.61
2017-02-24T01:24:29.746Z,989.58
2017-02-24T01:24:51.452Z,989.74
2017-02-24T01:25:13.154Z,989.65
2017-02-24T01:26:06.197Z,989.78
2017-02-24T01:26:27.889Z,989.78
2017-02-24T01:26:49.695Z,989.73
2017-02-24T01:27:11.400Z,989.77
2017-02-24T01:27:33.104Z,989.73
2017-02-24T01:27:54.848Z,989.85
2017-02-24T01:28:16.545Z,989.81
2017-02-24T01:28:38.278Z,989.74
2017-02-24T01:29:04.748Z,989.68
2017-02-24T01:29:26.449Z,989.77
2017-02-24T01:29:48.250Z,989.74
2017-02-24T01:30:41.203Z,989.77
2017-02-24T01:31:07.777Z,989.78
2017-02-24T01:31:29.477Z,989.97
2017-02-24T01:31:51.364Z,989.90
2017-02-24T01:32:17.844Z,989.84
2017-02-24T01:32:39.653Z,989.83
2017-02-24T01:33:42.734Z,989.94
2017-02-24T01:34:04.528Z,990.00
2017-02-24T01:34:26.229Z,989.73
2017-02-24T01:34:47.936Z,989.91
2017-02-24T01:35:09.633Z,989.97
2017-02-24T01:35:31.332Z,990.01
2017-02-24T01:35:53.046Z,989.91
2017-02-24T01:36:14.744Z,989.92
2017-02-24T01:37:17.273Z,989.88
2017-02-24T01:37:39.268Z,990.00
2017-02-24T01:38:01.105Z,989.98
2017-02-24T01:38:54.241Z,989.85
2017-02-24T01:39:47.235Z,989.96
2017-02-24T01:40:09.028Z,990.04
2017-02-24T01:40:35.505Z,990.37
2017-02-24T01:40:57.202Z,990.18
2017-02-24T01:41:50.231Z,989.94
2017-02-24T01:42:11.937Z,990.07
2017-02-24T01:43:05.028Z,990.12
2017-02-24T01:43:58.139Z,990.00
2017-02-24T01:44:46.335Z,990.11
2017-02-24T01:45:12.821Z,990.00
2017-02-24T01:45:34.628Z,990.14
2017-02-24T01:45:56.337Z,990.14
2017-02-24T01:46:22.817Z,990.13
2017-02-24T01:46:44.615Z,990.15
2017-02-24T01:47:37.749Z,990.15
2017-02-24T01:48:04.257Z,990.20
2017-02-24T01:48:26.001Z,990.15
2017-02-24T01:48:52.478Z,990.28
2017-02-24T01:49:14.262Z,990.23
2017-02-24T01:49:40.737Z,990.24
2017-02-24T01:50:02.440Z,990.23
2017-02-24T01:50:28.929Z,990.18
2017-02-24T01:50:50.735Z,990.22
2017-02-24T01:51:17.245Z,990.20
2017-02-24T01:51:39.019Z,990.21
2017-02-24T01:52:00.727Z,990.31
2017-02-24T01:52:22.437Z,990.25
2017-02-24T01:52:47.053Z,990.33
2017-02-24T01:53:08.894Z,990.38
2017-02-24T01:53:30.606Z,990.30
2017-02-24T01:53:57.095Z,990.11
2017-02-24T01:54:18.806Z,990.09
2017-02-24T01:54:40.611Z,990.28
2017-02-24T01:55:07.086Z,990.14
2017-02-24T01:55:28.822Z,990.32
2017-02-24T01:55:55.323Z,990.44
2017-02-24T01:56:17.115Z,990.40
2017-02-24T01:56:38.838Z,990.36
2017-02-24T01:57:00.579Z,990.36
2017-02-24T01:57:22.382Z,990.28
2017-02-24T01:57:44.101Z,990.26
2017-02-24T01:58:10.625Z,990.41
2017-02-24T01:58:32.324Z,990.45
2017-02-24T01:58:58.796Z,990.35
2017-02-24T01:59:20.608Z,990.36
2017-02-24T01:59:47.081Z,990.38
2017-02-24T02:00:08.790Z,990.50
2017-02-24T02:00:30.593Z,990.50
2017-02-24T02:00:57.082Z,990.49
2017-02-24T02:01:18.794Z,990.47
2017-02-24T02:01:45.276Z,990.49
2017-02-24T02:02:07.054Z,990.49
2017-02-24T02:03:00.136Z,990.55
2017-02-24T02:03:26.614Z,990.61
2017-02-24T02:03:48.303Z,990.59
2017-02-24T02:04:10.109Z,990.56
2017-02-24T02:04:36.617Z,990.47
2017-02-24T02:04:58.327Z,990.69
2017-02-24T02:05:24.935Z,990.61
2017-02-24T02:05:46.571Z,990.59
2017-02-24T02:06:13.051Z,990.83
2017-02-24T02:06:34.751Z,990.55
2017-02-24T02:07:01.348Z,990.60
2017-02-24T02:07:22.976Z,990.75
2017-02-24T02:07:49.464Z,991.02
2017-02-24T02:08:11.167Z,990.57
2017-02-24T02:09:14.666Z,990.77
2017-02-24T02:09:36.382Z,990.85
2017-02-24T02:09:58.103Z,990.57
2017-02-24T02:10:24.722Z,990.49
2017-02-24T02:10:46.378Z,990.52
2017-02-24T02:11:49.463Z,990.64
2017-02-24T02:12:11.249Z,990.67
2017-02-24T02:12:32.965Z,990.76
2017-02-24T02:12:59.583Z,990.71
2017-02-24T02:13:21.227Z,990.87
2017-02-24T02:14:14.263Z,990.74
2017-02-24T02:14:35.963Z,990.75
2017-02-24T02:15:02.455Z,990.70
2017-02-24T02:15:24.170Z,990.72
2017-02-24T02:15:45.971Z,990.84
2017-02-24T02:16:12.466Z,990.74
2017-02-24T02:16:34.164Z,990.68
2017-02-24T02:16:55.909Z,990.69
2017-02-24T02:17:22.526Z,990.73
2017-02-24T02:17:44.171Z,990.89
2017-02-24T02:18:10.685Z,990.88
2017-02-24T02:18:32.392Z,990.76
2017-02-24T02:18:59.039Z,990.88
2017-02-24T02:19:20.676Z,991.05
2017-02-24T02:19:47.182Z,990.92
2017-02-24T02:20:08.855Z,990.89
2017-02-24T02:21:01.890Z,990.92
2017-02-24T02:21:23.597Z,991.07
2017-02-24T02:21:50.094Z,990.96
2017-02-24T02:22:11.865Z,990.84
2017-02-24T02:22:38.337Z,991.00
2017-02-24T02:23:00.036Z,990.95
2017-02-24T02:23:26.648Z,990.94
2017-02-24T02:23:48.273Z,990.81
2017-02-24T02:24:14.768Z,990.87
2017-02-24T02:24:36.451Z,990.98
2017-02-24T02:25:02.937Z,991.03
2017-02-24T02:25:24.726Z,991.09
2017-02-24T02:25:51.240Z,991.05
2017-02-24T02:26:58.532Z,991.07
2017-02-24T02:27:20.235Z,991.03
2017-02-24T02:27:41.936Z,991.11
2017-02-24T02:28:34.948Z,991.14
2017-02-24T02:28:56.655Z,991.11
2017-02-24T02:29:23.132Z,990.91
2017-02-24T02:29:44.919Z,991.02
2017-02-24T02:30:37.890Z,991.05
2017-02-24T02:31:04.372Z,991.07
2017-02-24T02:31:26.183Z,991.08
2017-02-24T02:33:00.053Z,991.00
2017-02-24T02:34:07.353Z,991.16
2017-02-24T02:34:29.170Z,991.09
2017-02-24T02:34:50.884Z,991.24
2017-02-24T02:35:43.931Z,991.18
2017-02-24T02:36:10.404Z,991.15
2017-02-24T02:36:32.136Z,991.10
2017-02-24T02:36:58.769Z,991.21
2017-02-24T02:37:20.506Z,991.21
2017-02-24T02:37:47.007Z,991.15
2017-02-24T02:38:08.705Z,991.21
2017-02-24T02:38:35.307Z,991.22
2017-02-24T02:38:56.955Z,991.13
2017-02-24T02:39:18.648Z,991.06
2017-02-24T02:40:11.658Z,991.21
2017-02-24T02:40:33.404Z,991.18
2017-02-24T02:40:59.934Z,991.11
2017-02-24T02:41:21.732Z,991.08
2017-02-24T02:41:43.500Z,991.12
2017-02-24T02:42:10.002Z,991.20
2017-02-24T02:42:31.713Z,991.18
2017-02-24T02:42:53.513Z,991.16
2017-02-24T02:43:15.226Z,991.16
2017-02-24T02:43:36.938Z,991.23
2017-02-24T02:44:03.545Z,991.18
2017-02-24T02:44:25.354Z,991.18
2017-02-24T02:44:47.072Z,991.17
2017-02-24T02:45:08.784Z,991.27
2017-02-24T02:45:30.569Z,991.20
2017-02-24T02:45:52.273Z,991.29
2017-02-24T02:46:18.746Z,991.26
2017-02-24T02:46:40.474Z,991.24
2017-02-24T02:47:06.965Z,991.15
2017-02-24T02:47:28.738Z,991.37
2017-02-24T02:47:55.205Z,991.33
2017-02-24T02:48:16.904Z,991.30
2017-02-24T02:49:09.937Z,991.25
2017-02-24T02:49:31.748Z,991.26
2017-02-24T02:50:34.247Z,991.35
2017-02-24T02:50:56.040Z,991.24
2017-02-24T02:51:17.750Z,991.20
2017-02-24T02:51:44.247Z,991.26
2017-02-24T02:52:06.074Z,991.42
2017-02-24T02:52:32.564Z,991.34
2017-02-24T02:52:54.265Z,991.34
2017-02-24T02:53:15.975Z,991.35
2017-02-24T02:53:42.456Z,991.29
2017-02-24T02:54:04.311Z,991.35
2017-02-24T02:54:30.816Z,991.47
2017-02-24T02:54:52.546Z,991.41
2017-02-24T02:55:14.430Z,991.50
2017-02-24T02:56:07.495Z,991.33
2017-02-24T02:56:34.109Z,991.40
2017-02-24T02:56:56.062Z,991.49
2017-02-24T02:57:22.620Z,991.47
2017-02-24T02:57:44.572Z,991.49
2017-02-24T02:58:51.902Z,991.48
2017-02-24T02:59:13.731Z,991.48
2017-02-24T02:59:40.233Z,991.51
2017-02-24T03:00:01.946Z,991.48
2017-02-24T03:00:28.425Z,991.73
2017-02-24T03:00:50.323Z,991.66
2017-02-24T03:01:53.419Z,991.69
2017-02-24T03:02:16.462Z,991.65
2017-02-24T03:03:19.617Z,991.61
2017-02-24T03:03:41.464Z,991.52
2017-02-24T03:04:07.971Z,991.66
2017-02-24T03:04:29.794Z,991.61
2017-02-24T03:04:56.381Z,991.74
2017-02-24T03:05:18.186Z,991.68
2017-02-24T03:05:44.750Z,991.64
2017-02-24T03:06:06.621Z,991.83
2017-02-24T03:06:33.212Z,991.66
2017-02-24T03:06:59.733Z,991.66
2017-02-24T03:07:21.585Z,991.74
2017-02-24T03:07:48.105Z,991.89
2017-02-24T03:08:09.821Z,991.72
2017-02-24T03:08:31.667Z,991.63
2017-02-24T03:08:58.135Z,991.79
2017-02-24T03:09:19.890Z,991.78
2017-02-24T03:09:41.655Z,991.83
2017-02-24T03:10:08.140Z,991.80
2017-02-24T03:10:29.934Z,991.79
2017-02-24T03:10:51.667Z,991.69
2017-02-24T03:11:18.218Z,991.87
2017-02-24T03:11:40.149Z,991.86
2017-02-24T03:12:06.629Z,991.81
2017-02-24T03:12:28.358Z,991.67
2017-02-24T03:13:21.403Z,991.83
2017-02-24T03:13:43.111Z,991.85
2017-02-24T03:14:09.672Z,991.93
2017-02-24T03:14:31.564Z,991.89
2017-02-24T03:15:38.995Z,991.83
2017-02-24T03:16:00.962Z,991.94
2017-02-24T03:16:22.736Z,991.94
2017-02-24T03:16:44.510Z,991.90
2017-02-24T03:17:06.280Z,992.07
2017-02-24T03:17:28.088Z,991.98
2017-02-24T03:17:54.581Z,992.02
2017-02-24T03:18:16.412Z,992.08
2017-02-24T03:19:18.983Z,992.20
2017-02-24T03:19:40.750Z,992.10
2017-02-24T03:20:12.013Z,992.08
2017-02-24T03:20:33.840Z,992.05
2017-02-24T03:20:55.561Z,992.00
2017-02-24T03:21:22.030Z,992.06
2017-02-24T03:21:43.826Z,991.97
2017-02-24T03:22:37.004Z,992.16
2017-02-24T03:23:40.200Z,992.07
2017-02-24T03:24:02.143Z,992.12
2017-02-24T03:25:35.910Z,992.24
2017-02-24T03:26:38.541Z,992.20
2017-02-24T03:27:05.022Z,992.06
2017-02-24T03:27:26.724Z,991.99
2017-02-24T03:27:48.519Z,992.07
2017-02-24T03:28:10.226Z,992.18
2017-02-24T03:28:31.923Z,992.21
2017-02-24T03:28:53.646Z,992.22
2017-02-24T03:29:15.465Z,992.14
2017-02-24T03:29:37.169Z,992.20
2017-02-24T03:29:58.884Z,992.16
2017-02-24T03:30:20.586Z,992.14
2017-02-24T03:30:42.389Z,992.19
2017-02-24T03:31:08.846Z,992.23
2017-02-24T03:31:30.538Z,992.13
2017-02-24T03:32:23.611Z,992.09
2017-02-24T03:32:50.118Z,992.29
2017-02-24T03:33:11.828Z,992.21
2017-02-24T03:33:33.633Z,992.08
2017-02-24T03:34:00.135Z,992.17
2017-02-24T03:34:21.838Z,992.25
2017-02-24T03:35:24.345Z,992.36
2017-02-24T03:35:46.036Z,992.30
2017-02-24T03:36:49.238Z,992.30
2017-02-24T03:37:10.967Z,992.30
2017-02-24T03:37:32.710Z,992.27
2017-02-24T03:37:54.503Z,992.24
2017-02-24T03:38:16.212Z,992.33
2017-02-24T03:38:42.699Z,992.29
2017-02-24T03:39:04.424Z,992.35
2017-02-24T03:39:30.904Z,992.32
2017-02-24T03:39:52.685Z,992.28
2017-02-24T03:40:19.183Z,992.33
2017-02-24T03:40:40.890Z,992.40
2017-02-24T03:41:07.362Z,992.26
2017-02-24T03:41:29.148Z,992.30
2017-02-24T03:41:50.848Z,992.41
2017-02-24T03:42:12.554Z,992.45
2017-02-24T03:42:34.357Z,992.42
2017-02-24T03:42:56.054Z,992.51
2017-02-24T03:43:22.527Z,992.37
2017-02-24T03:43:44.258Z,992.41
2017-02-24T03:44:47.480Z,992.51
2017-02-24T03:45:09.182Z,992.50
2017-02-24T03:46:02.256Z,992.61
2017-02-24T03:46:55.288Z,992.51
2017-02-24T03:47:48.248Z,992.49
2017-02-24T03:48:14.737Z,992.44
2017-02-24T03:48:41.221Z,992.54
2017-02-24T03:49:43.743Z,992.50
2017-02-24T03:50:10.232Z,992.61
2017-02-24T03:50:31.948Z,992.53
2017-02-24T03:50:58.427Z,992.71
2017-02-24T03:51:20.262Z,992.72
2017-02-24T03:51:46.757Z,992.65
2017-02-24T03:52:08.474Z,992.77
2017-02-24T03:53:06.897Z,992.60
2017-02-24T03:53:28.597Z,992.82
2017-02-24T03:54:31.791Z,992.71
2017-02-24T03:54:53.488Z,992.80
2017-02-24T03:55:19.990Z,992.67
2017-02-24T03:55:41.815Z,992.76
2017-02-24T03:56:08.309Z,992.78
2017-02-24T03:56:30.014Z,992.79
2017-02-24T03:56:51.806Z,992.84
2017-02-24T03:57:18.285Z,992.78
2017-02-24T03:57:40.006Z,992.69
2017-02-24T03:58:06.480Z,992.86
2017-02-24T03:58:28.286Z,992.81
2017-02-24T03:59:21.360Z,992.74
2017-02-24T03:59:43.066Z,992.73
2017-02-24T04:00:09.570Z,992.69
2017-02-24T04:00:31.336Z,992.89
2017-02-24T04:00:53.110Z,992.87
2017-02-24T04:01:19.587Z,992.81
2017-02-24T04:01:41.426Z,992.80
2017-02-24T04:02:03.266Z,992.88
2017-02-24T04:02:56.483Z,992.77
2017-02-24T04:03:59.654Z,992.91
2017-02-24T04:04:21.436Z,992.87
2017-02-24T04:04:43.207Z,992.87
2017-02-24T04:05:09.753Z,992.98
2017-02-24T04:05:31.540Z,992.83
2017-02-24T04:05:53.364Z,992.87
2017-02-24T04:06:15.063Z,992.90
2017-02-24T04:06:36.777Z,992.81
2017-02-24T04:06:58.554Z,992.90
2017-02-24T04:07:20.275Z,992.87
2017-02-24T04:07:42.006Z,992.91
2017-02-24T04:08:03.776Z,992.93
2017-02-24T04:08:25.609Z,992.89
2017-02-24T04:08:47.365Z,992.97
2017-02-24T04:09:09.100Z,992.93
2017-02-24T04:09:30.837Z,992.82
2017-02-24T04:09:52.713Z,992.89
2017-02-24T04:10:14.488Z,992.99
2017-02-24T04:10:36.257Z,993.21
2017-02-24T04:10:58.002Z,993.04
2017-02-24T04:11:19.914Z,993.03
2017-02-24T04:11:41.640Z,993.01
2017-02-24T04:12:03.419Z,993.07
2017-02-24T04:12:25.176Z,992.93
2017-02-24T04:12:46.979Z,993.19
2017-02-24T04:13:08.746Z,993.28
2017-02-24T04:13:30.463Z,993.13
2017-02-24T04:13:52.248Z,993.08
2017-02-24T04:14:14.048Z,993.10
2017-02-24T04:14:35.786Z,993.03
2017-02-24T04:14:57.538Z,993.05
2017-02-24T04:15:19.260Z,992.99
2017-02-24T04:15:41.057Z,993.05
2017-02-24T04:16:02.802Z,992.95
2017-02-24T04:16:24.626Z,993.02
2017-02-24T04:16:46.462Z,993.26
2017-02-24T04:17:08.283Z,993.16
2017-02-24T04:17:30.013Z,993.02
2017-02-24T04:17:51.821Z,993.02
2017-02-24T04:18:13.675Z,993.11
2017-02-24T04:18:35.442Z,993.03
2017-02-24T04:18:57.183Z,993.11
2017-02-24T04:19:51.206Z,992.97
2017-02-24T04:20:12.987Z,992.96
2017-02-24T04:20:34.702Z,992.93
2017-02-24T04:21:02.190Z,993.00
2017-02-24T04:22:00.580Z,993.08
2017-02-24T04:22:22.312Z,993.21
2017-02-24T04:22:44.037Z,993.12
2017-02-24T04:23:05.844Z,993.03
2017-02-24T04:24:13.264Z,993.15
2017-02-24T04:24:37.889Z,993.31
2017-02-24T04:24:59.578Z,993.12
2017-02-24T04:25:21.281Z,993.17
2017-02-24T04:25:43.079Z,993.15
2017-02-24T04:26:04.816Z,993.16
2017-02-24T04:26:26.573Z,993.13
2017-02-24T04:26:48.315Z,993.06
2017-02-24T04:27:10.138Z,993.13
2017-02-24T04:27:31.873Z,993.10
2017-02-24T04:27:53.636Z,993.02
2017-02-24T04:28:15.431Z,993.08
2017-02-24T04:28:37.242Z,993.24
2017-02-24T04:28:58.938Z,993.26
2017-02-24T04:29:20.664Z,993.17
2017-02-24T04:29:42.402Z,993.17
2017-02-24T04:30:04.327Z,993.06
2017-02-24T04:30:26.065Z,993.10
2017-02-24T04:30:47.840Z,993.15
2017-02-24T04:31:09.582Z,993.14
2017-02-24T04:31:31.397Z,993.16
2017-02-24T04:31:53.118Z,993.05
2017-02-24T04:32:56.382Z,993.15
2017-02-24T04:33:18.069Z,993.19
2017-02-24T04:33:44.585Z,993.20
2017-02-24T04:34:06.309Z,993.21
2017-02-24T04:34:32.941Z,993.24
2017-02-24T04:34:54.770Z,993.21
2017-02-24T04:35:21.313Z,993.14
2017-02-24T04:35:43.022Z,993.20
2017-02-24T04:36:04.823Z,993.27
2017-02-24T04:36:57.823Z,993.22
2017-02-24T04:38:00.379Z,993.23
2017-02-24T04:38:22.077Z,993.23
2017-02-24T04:38:43.904Z,993.17
2017-02-24T04:39:05.628Z,993.17
2017-02-24T04:39:27.352Z,993.23
2017-02-24T04:39:49.152Z,993.32
2017-02-24T04:40:10.897Z,993.18
2017-02-24T04:40:32.635Z,993.14
2017-02-24T04:40:54.364Z,993.20
2017-02-24T04:41:16.206Z,993.20
2017-02-24T04:41:37.974Z,993.23
2017-02-24T04:41:59.713Z,993.26
2017-02-24T04:42:21.455Z,993.15
2017-02-24T04:42:43.275Z,993.20
2017-02-24T04:43:05.039Z,993.12
2017-02-24T04:43:26.780Z,993.27
2017-02-24T04:43:48.530Z,993.21
2017-02-24T04:44:10.371Z,993.19
2017-02-24T04:44:32.115Z,993.21
2017-02-24T04:44:53.883Z,993.15
2017-02-24T04:45:15.633Z,993.28
2017-02-24T04:45:37.462Z,993.31
2017-02-24T04:45:59.217Z,993.24
2017-02-24T04:46:20.964Z,993.29
2017-02-24T04:46:42.699Z,993.39
2017-02-24T04:47:04.529Z,993.38
2017-02-24T04:47:26.263Z,993.46
2017-02-24T04:48:28.780Z,993.37
2017-02-24T04:48:50.494Z,993.42
2017-02-24T04:49:12.187Z,993.44
2017-02-24T04:49:33.959Z,993.42
2017-02-24T04:49:55.669Z,993.44
2017-02-24T04:50:17.417Z,993.48
2017-02-24T04:50:39.164Z,993.37
2017-02-24T04:51:00.981Z,993.37
2017-02-24T04:52:03.530Z,993.40
2017-02-24T04:53:01.915Z,993.36
2017-02-24T04:53:23.567Z,993.35
2017-02-24T04:53:45.294Z,993.31
2017-02-24T04:54:07.090Z,993.24
2017-02-24T04:54:33.705Z,993.41
2017-02-24T04:54:57.934Z,993.32
2017-02-24T04:55:19.627Z,993.31
2017-02-24T04:56:12.672Z,993.33
2017-02-24T04:56:34.457Z,993.32
2017-02-24T04:56:56.213Z,993.31
2017-02-24T04:57:18.056Z,993.26
2017-02-24T04:57:39.777Z,993.26
2017-02-24T04:58:01.525Z,993.28
2017-02-24T04:58:23.264Z,993.28
2017-02-24T04:59:30.642Z,993.45
2017-02-24T04:59:57.147Z,993.52
2017-02-24T05:00:18.946Z,993.48
2017-02-24T05:00:45.465Z,993.43
2017-02-24T05:01:07.209Z,993.56
2017-02-24T05:01:33.838Z,993.40
2017-02-24T05:01:55.526Z,993.50
2017-02-24T05:02:58.176Z,993.56
2017-02-24T05:03:19.916Z,993.58
2017-02-24T05:04:18.241Z,993.55
2017-02-24T05:04:40.081Z,993.65
2017-02-24T05:05:01.852Z,993.71
2017-02-24T05:05:23.605Z,993.63
2017-02-24T05:05:45.478Z,993.56
2017-02-24T05:06:07.243Z,993.59
2017-02-24T05:06:28.983Z,993.66
2017-02-24T05:06:50.717Z,993.58
2017-02-24T05:07:12.513Z,993.64
2017-02-24T05:07:34.235Z,993.59
2017-02-24T05:07:55.966Z,993.57
2017-02-24T05:08:17.711Z,993.55
2017-02-24T05:08:39.533Z,993.51
2017-02-24T05:09:01.351Z,993.48
2017-02-24T05:09:23.093Z,993.71
2017-02-24T05:09:44.848Z,993.59
2017-02-24T05:10:06.661Z,993.68
2017-02-24T05:10:28.422Z,993.72
2017-02-24T05:10:50.156Z,993.73
2017-02-24T05:11:11.891Z,993.65
2017-02-24T05:11:33.637Z,993.70
2017-02-24T05:11:55.387Z,993.68
2017-02-24T05:12:17.164Z,993.65
2017-02-24T05:12:39.045Z,993.65
2017-02-24T05:13:00.774Z,993.54
2017-02-24T05:13:22.491Z,993.57
2017-02-24T05:13:44.251Z,993.62
2017-02-24T05:14:05.960Z,993.70
2017-02-24T05:14:27.874Z,993.83
2017-02-24T05:14:49.602Z,993.72
2017-02-24T05:15:11.414Z,993.66
2017-02-24T05:15:33.138Z,993.53
2017-02-24T05:15:54.846Z,993.64
2017-02-24T05:16:16.545Z,993.68
2017-02-24T05:16:38.373Z,993.66
2017-02-24T05:17:04.853Z,993.59
2017-02-24T05:17:26.560Z,993.63
2017-02-24T05:17:48.264Z,993.65
2017-02-24T05:18:10.062Z,993.80
2017-02-24T05:18:31.755Z,993.76
2017-02-24T05:18:53.486Z,993.75
2017-02-24T05:19:15.198Z,993.68
2017-02-24T05:19:36.989Z,993.71
2017-02-24T05:19:58.688Z,993.75
2017-02-24T05:20:25.190Z,993.71
2017-02-24T05:20:46.875Z,993.83
2017-02-24T05:21:50.047Z,993.82
2017-02-24T05:22:11.743Z,993.80
2017-02-24T05:22:33.542Z,993.78
2017-02-24T05:23:26.619Z,993.79
2017-02-24T05:23:48.318Z,993.78
2017-02-24T05:24:41.371Z,993.71
2017-02-24T05:26:25.276Z,993.77
2017-02-24T05:26:46.984Z,993.92
2017-02-24T05:27:08.683Z,993.81
2017-02-24T05:27:35.150Z,993.90
2017-02-24T05:27:56.975Z,993.83
2017-02-24T05:28:18.686Z,993.91
2017-02-24T05:28:40.405Z,993.80
2017-02-24T05:29:02.145Z,993.77
2017-02-24T05:29:28.722Z,993.92
2017-02-24T05:29:50.437Z,993.87
2017-02-24T05:30:12.133Z,993.89
2017-02-24T05:30:38.600Z,993.74
2017-02-24T05:31:00.402Z,993.77
2017-02-24T05:31:22.104Z,993.99
2017-02-24T05:32:15.151Z,993.91
2017-02-24T05:32:36.846Z,993.93
2017-02-24T05:33:03.325Z,993.92
2017-02-24T05:33:25.115Z,993.91
2017-02-24T05:33:46.827Z,993.88
2017-02-24T05:34:08.550Z,993.81
2017-02-24T05:34:30.285Z,993.83
2017-02-24T05:34:51.989Z,993.89
2017-02-24T05:35:18.472Z,993.86
2017-02-24T05:35:40.179Z,993.95
2017-02-24T05:36:06.651Z,993.97
2017-02-24T05:36:28.456Z,994.10
2017-02-24T05:36:54.956Z,994.06
2017-02-24T05:37:16.671Z,993.94
2017-02-24T05:37:38.476Z,993.97
2017-02-24T05:38:31.433Z,993.97
2017-02-24T05:39:24.386Z,994.05
2017-02-24T05:40:17.356Z,994.01
2017-02-24T05:40:43.833Z,993.99
2017-02-24T05:41:05.545Z,993.96
2017-02-24T05:41:58.603Z,993.99
2017-02-24T05:42:25.097Z,993.97
2017-02-24T05:42:46.805Z,994.02
2017-02-24T05:43:08.512Z,993.96
2017-02-24T05:43:34.988Z,993.94
2017-02-24T05:43:56.689Z,993.98
2017-02-24T05:44:18.385Z,994.09
2017-02-24T05:44:40.202Z,994.11
2017-02-24T05:45:01.888Z,994.09
2017-02-24T05:45:28.373Z,994.08
2017-02-24T05:45:50.100Z,994.10